Time;durP1;ratioP1;P1;durP2;ratioP2;P2;SDS_P1;SDS_P2;PMS_P1;PMS_P2;Temp;Humidity;BMP_temperature;BMP_pressure;BME280_temperature;BME280_humidity;BME280_pressure;Samples;Min_cycle;Max_cycle;Signal;HPM_P1;HPM_P2
2023/02/20 00:00:28;;;;;;;17.48;8.43;;;;;;;4.20;100.00;102367.13;4992729;28;20046;-77
2023/02/20 00:02:53;;;;;;;19.30;8.45;;;;;;;4.19;100.00;102374.91;4992015;28;20030;-79
2023/02/20 00:05:19;;;;;;;16.40;8.35;;;;;;;4.17;100.00;102363.88;4987041;28;20057;-79
2023/02/20 00:07:45;;;;;;;20.33;10.05;;;;;;;4.15;100.00;102352.84;5001642;28;20065;-80
2023/02/20 00:10:11;;;;;;;21.80;9.63;;;;;;;4.15;100.00;102358.81;4991014;28;20034;-78
2023/02/20 00:12:36;;;;;;;19.13;9.02;;;;;;;4.17;100.00;102351.03;4992336;28;20049;-80
2023/02/20 00:15:03;;;;;;;24.10;10.27;;;;;;;4.19;100.00;102349.22;4973440;28;20087;-79
2023/02/20 00:17:28;;;;;;;22.60;9.32;;;;;;;4.21;100.00;102361.06;5008561;28;20068;-79
2023/02/20 00:19:54;;;;;;;20.05;9.00;;;;;;;4.15;100.00;102356.25;4990108;28;20042;-79
2023/02/20 00:22:21;;;;;;;16.40;8.13;;;;;;;4.11;100.00;102349.59;4987659;28;20137;-80
2023/02/20 00:24:46;;;;;;;22.70;8.90;;;;;;;4.09;100.00;102348.84;4989973;28;20493;-79
2023/02/20 00:27:12;;;;;;;21.90;9.93;;;;;;;4.11;100.00;102352.16;4990143;28;20034;-79
2023/02/20 00:29:38;;;;;;;21.67;9.88;;;;;;;4.18;100.00;102352.69;4976682;28;20049;-79
2023/02/20 00:32:04;;;;;;;23.33;10.88;;;;;;;4.13;100.00;102357.22;4990236;28;20065;-79
2023/02/20 00:34:31;;;;;;;18.90;9.32;;;;;;;4.10;100.00;102353.06;4976906;28;20025;-79
2023/02/20 00:36:56;;;;;;;21.17;9.25;;;;;;;4.03;100.00;102344.84;4989262;28;20085;-79
2023/02/20 00:39:23;;;;;;;19.23;9.00;;;;;;;4.01;100.00;102346.66;5011616;28;20138;-78
2023/02/20 00:41:49;;;;;;;19.02;9.77;;;;;;;3.99;100.00;102351.00;4996477;28;20045;-80
2023/02/20 00:44:15;;;;;;;18.27;9.00;;;;;;;4.07;100.00;102346.34;4995493;28;20043;-79
2023/02/20 00:46:41;;;;;;;19.25;9.52;;;;;;;4.04;100.00;102343.94;4993950;28;20065;-79
2023/02/20 00:49:06;;;;;;;20.50;9.35;;;;;;;4.06;100.00;102331.84;4999171;28;20061;-79
2023/02/20 00:51:47;;;;;;;18.05;9.60;;;;;;;4.03;100.00;102331.16;4993557;28;20534;-80
2023/02/20 00:54:13;;;;;;;23.17;9.13;;;;;;;4.02;100.00;102316.69;4996821;28;20038;-79
2023/02/20 00:56:38;;;;;;;20.20;9.80;;;;;;;4.04;100.00;102312.31;4990479;28;20052;-80
2023/02/20 00:59:04;;;;;;;26.25;10.45;;;;;;;4.09;100.00;102310.34;4995468;28;20038;-81
2023/02/20 01:01:29;;;;;;;22.33;9.38;;;;;;;4.05;100.00;102293.41;4991042;28;20404;-78
2023/02/20 01:03:55;;;;;;;21.58;9.43;;;;;;;4.05;100.00;102296.81;4992171;28;20037;-80
2023/02/20 01:06:20;;;;;;;21.58;10.73;;;;;;;4.09;100.00;102293.19;4976591;28;20113;-78
2023/02/20 01:08:46;;;;;;;23.30;10.77;;;;;;;4.19;100.00;102290.16;4972909;28;20031;-79
2023/02/20 01:11:12;;;;;;;23.73;10.48;;;;;;;4.26;100.00;102284.63;4985866;28;20491;-80
2023/02/20 01:13:37;;;;;;;25.83;11.30;;;;;;;4.24;100.00;102283.06;4988302;28;20029;-79
2023/02/20 01:16:05;;;;;;;28.98;12.57;;;;;;;4.28;100.00;102287.94;4987460;28;20038;-79
2023/02/20 01:18:31;;;;;;;24.02;11.48;;;;;;;4.29;100.00;102278.50;4989612;28;20027;-80
2023/02/20 01:20:56;;;;;;;28.25;11.63;;;;;;;4.45;100.00;102288.81;4970717;28;20766;-78
2023/02/20 01:23:22;;;;;;;26.10;12.15;;;;;;;4.35;100.00;102261.94;4973669;28;20022;-76
2023/02/20 01:25:47;;;;;;;24.80;11.85;;;;;;;4.35;100.00;102260.22;4988075;28;20100;-77
2023/02/20 01:28:13;;;;;;;27.33;12.85;;;;;;;4.34;100.00;102250.03;4990128;28;20060;-78
2023/02/20 01:30:41;;;;;;;32.97;13.88;;;;;;;4.51;100.00;102252.53;4986347;28;20042;-76
2023/02/20 01:33:08;;;;;;;31.52;14.35;;;;;;;4.55;100.00;102241.19;5003037;28;20081;-78
2023/02/20 01:35:34;;;;;;;29.02;13.52;;;;;;;4.56;100.00;102239.44;4988141;28;20042;-80
2023/02/20 01:38:05;;;;;;;31.60;13.90;;;;;;;4.49;100.00;102250.03;4987470;28;20026;-78
2023/02/20 01:40:31;;;;;;;29.45;13.13;;;;;;;4.57;100.00;102254.75;5002661;28;20039;-79
2023/02/20 01:42:59;;;;;;;31.48;14.00;;;;;;;4.71;100.00;102264.34;4994821;28;20038;-80
2023/02/20 01:45:25;;;;;;;31.40;14.82;;;;;;;4.70;100.00;102274.69;5011756;28;20045;-79
2023/02/20 01:47:53;;;;;;;34.63;15.23;;;;;;;4.90;100.00;102263.31;4977511;28;20156;-79
2023/02/20 01:50:24;;;;;;;40.35;16.48;;;;;;;4.81;100.00;102268.06;4996145;28;20052;-77
2023/02/20 01:52:53;;;;;;;33.05;14.88;;;;;;;4.90;100.00;102271.03;5008067;28;20066;-79
2023/02/20 01:55:28;;;;;;;31.27;15.15;;;;;;;4.82;100.00;102253.44;4990278;28;20042;-79
2023/02/20 01:58:08;;;;;;;37.83;15.75;;;;;;;4.75;100.00;102259.84;4991374;28;20038;-79
2023/02/20 02:00:36;;;;;;;38.40;16.25;;;;;;;4.84;100.00;102252.47;4980681;28;20030;-80
2023/02/20 02:03:13;;;;;;;38.25;13.88;;;;;;;4.82;100.00;102254.31;4992717;28;20498;-78
2023/02/20 02:05:43;;;;;;;34.95;15.45;;;;;;;4.90;100.00;102243.59;4975385;28;20038;-78
2023/02/20 02:08:12;;;;;;;39.17;15.30;;;;;;;4.89;100.00;102241.94;4987299;28;20475;-76
2023/02/20 02:10:53;;;;;;;44.42;15.13;;;;;;;4.81;100.00;102234.63;4974194;28;20069;-79
2023/02/20 02:13:19;;;;;;;35.88;14.88;;;;;;;4.82;100.00;102233.75;4988318;28;20069;-80
2023/02/20 02:15:44;;;;;;;33.63;14.27;;;;;;;4.86;100.00;102229.25;5019136;28;20033;-79
2023/02/20 02:18:51;;;;;;;35.53;14.63;;;;;;;4.87;100.00;102225.75;4986808;28;20034;-78
2023/02/20 02:21:41;;;;;;;33.03;14.00;;;;;;;4.92;100.00;102213.50;4934668;28;20287;-78
2023/02/20 02:24:32;;;;;;;41.63;15.98;;;;;;;4.78;100.00;102209.09;4972884;28;20117;-79
2023/02/20 02:27:23;;;;;;;33.53;14.15;;;;;;;4.81;100.00;102197.84;4970519;28;20037;-78
2023/02/20 02:30:07;;;;;;;31.50;13.15;;;;;;;4.79;100.00;102185.06;5007429;28;20041;-78
2023/02/20 02:33:01;;;;;;;36.35;13.07;;;;;;;4.98;100.00;102187.44;4988972;28;20054;-82
2023/02/20 02:35:33;;;;;;;29.17;12.40;;;;;;;4.82;100.00;102178.91;5002307;28;20423;-77
2023/02/20 02:37:59;;;;;;;28.90;12.85;;;;;;;4.80;100.00;102184.16;5002756;28;20034;-80
2023/02/20 02:40:53;;;;;;;29.55;12.90;;;;;;;4.76;100.00;102190.34;5008373;28;20160;-79
2023/02/20 02:43:41;;;;;;;29.88;13.68;;;;;;;4.81;100.00;102179.84;4967910;28;20041;-79
2023/02/20 02:46:17;;;;;;;35.50;12.50;;;;;;;4.80;100.00;102179.03;5007011;28;20042;-79
2023/02/20 02:49:02;;;;;;;30.63;12.00;;;;;;;4.67;100.00;102175.44;4992161;28;20037;-79
2023/02/20 02:51:35;;;;;;;29.50;11.43;;;;;;;4.72;100.00;102181.16;5006492;28;20034;-79
2023/02/20 02:54:05;;;;;;;26.70;11.60;;;;;;;4.75;100.00;102175.06;4972485;28;20072;-78
2023/02/20 02:56:33;;;;;;;28.27;11.23;;;;;;;4.69;100.00;102168.50;4971242;28;20034;-79
2023/02/20 02:59:00;;;;;;;31.10;10.82;;;;;;;4.68;100.00;102185.66;4990304;28;20096;-81
2023/02/20 03:01:30;;;;;;;30.02;10.60;;;;;;;4.68;100.00;102166.84;4995651;28;20602;-78
2023/02/20 03:03:57;;;;;;;28.88;10.63;;;;;;;4.59;100.00;102167.34;4970927;28;20077;-80
2023/02/20 03:06:33;;;;;;;29.65;10.38;;;;;;;4.62;100.00;102151.75;4999947;28;20054;-79
2023/02/20 03:09:06;;;;;;;32.35;11.57;;;;;;;4.53;100.00;102160.78;4986754;28;20062;-80
2023/02/20 03:11:34;;;;;;;21.95;9.90;;;;;;;4.55;100.00;102165.84;4987133;28;20057;-79
2023/02/20 03:17:33;;;;;;;29.23;10.75;;;;;;;4.60;100.00;102162.13;5002111;28;20088;-79
2023/02/20 03:20:05;;;;;;;27.48;9.70;;;;;;;4.59;100.00;102151.91;4973219;28;20039;-76
2023/02/20 03:22:46;;;;;;;28.05;11.10;;;;;;;4.61;100.00;102155.22;4972812;28;20072;-79
2023/02/20 03:25:17;;;;;;;;;;;;;;;4.60;100.00;102145.88;4987667;28;20037;-78
2023/02/20 03:27:49;;;;;;;21.67;8.07;;;;;;;4.66;100.00;102142.97;5022474;28;19921;-80
2023/02/20 03:30:22;;;;;;;25.02;9.32;;;;;;;4.53;100.00;102129.97;4986948;28;20438;-76
2023/02/20 03:44:03;;;;;;;23.73;8.55;;;;;;;4.53;100.00;102139.41;5005678;28;20026;-79
2023/02/20 03:46:33;;;;;;;19.20;7.68;;;;;;;4.46;100.00;102144.03;5006522;28;20034;-80
2023/02/20 03:51:56;;;;;;;31.95;8.73;;;;;;;4.41;100.00;102140.91;4990529;28;20038;-79
2023/02/20 03:54:38;;;;;;;14.93;7.38;;;;;;;4.41;100.00;102138.34;4988914;28;20438;-78
2023/02/20 03:57:17;;;;;;;22.58;8.00;;;;;;;4.40;100.00;102132.38;4989380;28;20044;-78
2023/02/20 03:59:58;;;;;;;16.00;6.50;;;;;;;4.33;100.00;102137.91;4994181;28;20029;-79
2023/02/20 04:02:30;;;;;;;25.90;8.63;;;;;;;4.32;100.00;102139.66;4971661;28;20030;-79
2023/02/20 04:05:04;;;;;;;15.77;6.63;;;;;;;4.29;100.00;102129.53;5009000;28;20027;-78
2023/02/20 04:07:37;;;;;;;21.13;7.65;;;;;;;4.41;100.00;102135.78;4988751;28;20557;-79
2023/02/20 04:10:08;;;;;;;13.77;5.97;;;;;;;4.51;100.00;102125.84;4994637;28;20414;-75
2023/02/20 04:12:39;;;;;;;17.10;7.18;;;;;;;4.36;100.00;102127.50;4992085;28;20083;-79
2023/02/20 04:15:07;;;;;;;20.50;6.85;;;;;;;4.30;100.00;102133.78;4992644;28;20109;-80
2023/02/20 04:17:58;;;;;;;21.65;6.78;;;;;;;4.41;100.00;102133.22;4994182;28;20057;-80
2023/02/20 04:20:24;;;;;;;20.13;6.63;;;;;;;4.36;100.00;102132.63;4974850;28;20097;-79
2023/02/20 04:23:13;;;;;;;16.25;6.05;;;;;;;4.41;100.00;102138.34;4978917;28;20026;-79
2023/02/20 04:25:43;;;;;;;12.75;5.68;;;;;;;4.36;100.00;102138.59;4989841;28;20026;-76
2023/02/20 04:28:11;;;;;;;15.98;6.43;;;;;;;4.34;100.00;102142.16;4996076;28;20100;-79
2023/02/20 04:30:45;;;;;;;17.20;6.07;;;;;;;4.29;100.00;102138.09;5005436;28;20041;-79
2023/02/20 04:33:13;;;;;;;17.65;5.60;;;;;;;4.32;100.00;102136.28;4979976;28;20091;-78
2023/02/20 04:35:39;;;;;;;28.90;6.95;;;;;;;4.36;100.00;102132.63;4996050;28;20085;-80
2023/02/20 04:38:05;;;;;;;19.13;5.97;;;;;;;4.35;100.00;102133.53;4994697;28;20073;-80
2023/02/20 04:40:31;;;;;;;22.85;7.20;;;;;;;4.35;100.00;102133.53;4992423;28;20569;-79
2023/02/20 04:42:57;;;;;;;23.17;7.13;;;;;;;4.31;100.00;102132.84;4976326;28;20033;-79
2023/02/20 04:45:22;;;;;;;19.58;5.63;;;;;;;4.26;100.00;102134.88;4997246;28;20038;-80
2023/02/20 04:47:48;;;;;;;18.88;5.55;;;;;;;4.32;100.00;102139.66;4995759;28;20037;-77
2023/02/20 04:50:40;;;;;;;21.35;7.18;;;;;;;4.24;100.00;102137.50;4983988;28;20534;-83
2023/02/20 04:53:06;;;;;;;15.98;5.75;;;;;;;4.32;100.00;102128.56;4988493;28;20487;-78
2023/02/20 04:55:32;;;;;;;23.83;6.47;;;;;;;4.36;100.00;102125.75;4994052;28;20407;-78
2023/02/20 04:58:00;;;;;;;19.60;5.43;;;;;;;4.33;100.00;102122.50;4996931;28;20562;-79
2023/02/20 05:00:32;;;;;;;20.52;5.78;;;;;;;4.36;100.00;102125.75;4978256;28;20502;-79
2023/02/20 05:02:58;;;;;;;19.55;5.65;;;;;;;4.36;100.00;102124.94;4977943;28;20099;-78
2023/02/20 05:05:27;;;;;;;14.18;5.80;;;;;;;4.29;100.00;102119.28;5011007;28;20046;-79
2023/02/20 05:07:57;;;;;;;14.68;6.68;;;;;;;4.37;100.00;102108.59;4974067;28;20060;-79
2023/02/20 05:10:25;;;;;;;18.30;5.68;;;;;;;4.42;100.00;102106.59;4995254;28;20034;-79
2023/02/20 05:12:51;;;;;;;19.33;5.55;;;;;;;4.28;100.00;102115.88;4978419;28;20112;-80
2023/02/20 05:15:17;;;;;;;18.35;6.43;;;;;;;4.26;100.00;102109.19;4997381;28;20033;-79
2023/02/20 05:17:42;;;;;;;16.02;6.88;;;;;;;4.29;100.00;102116.72;4994506;28;20116;-77
2023/02/20 05:20:09;;;;;;;18.50;6.82;;;;;;;4.24;100.00;102111.00;5008292;28;20038;-80
2023/02/20 05:22:34;;;;;;;17.60;7.70;;;;;;;4.27;100.00;102114.22;5012071;28;20022;-79
2023/02/20 05:24:59;;;;;;;22.85;7.78;;;;;;;4.25;100.00;102107.50;4994688;28;20042;-80
2023/02/20 05:27:26;;;;;;;22.05;7.78;;;;;;;4.24;100.00;102123.84;4975437;28;20609;-79
2023/02/20 05:29:57;;;;;;;22.48;8.38;;;;;;;4.19;100.00;102125.84;5003606;28;20042;-79
2023/02/20 05:32:25;;;;;;;30.65;10.07;;;;;;;4.27;100.00;102131.38;5009159;28;20034;-80
2023/02/20 05:34:51;;;;;;;21.45;8.60;;;;;;;4.16;100.00;102131.13;4978301;28;20034;-79
2023/02/20 05:37:18;;;;;;;25.02;9.13;;;;;;;4.14;100.00;102133.75;5007865;28;20034;-79
2023/02/20 05:39:44;;;;;;;25.80;8.38;;;;;;;4.19;100.00;102123.25;4992834;28;20084;-78
2023/02/20 05:42:10;;;;;;;22.67;9.48;;;;;;;4.15;100.00;102127.72;5007312;28;20046;-79
2023/02/20 05:44:35;;;;;;;18.58;8.77;;;;;;;4.24;100.00;102126.41;5014842;28;20474;-77
2023/02/20 05:47:01;;;;;;;18.27;10.00;;;;;;;4.21;100.00;102121.44;4983751;28;20568;-77
2023/02/20 05:49:27;;;;;;;25.58;9.65;;;;;;;4.19;100.00;102120.69;4992924;28;20065;-80
2023/02/20 05:51:56;;;;;;;20.35;9.95;;;;;;;4.17;100.00;102115.63;4992671;28;20042;-80
2023/02/20 05:54:22;;;;;;;22.05;11.13;;;;;;;4.22;100.00;102123.06;5011663;28;20061;-79
2023/02/20 05:56:48;;;;;;;22.42;10.05;;;;;;;4.27;100.00;102116.78;5013567;28;20077;-78
2023/02/20 05:59:17;;;;;;;29.15;10.18;;;;;;;4.23;100.00;102111.91;4991960;28;20057;-79
2023/02/20 06:01:43;;;;;;;25.08;11.18;;;;;;;4.25;100.00;102113.47;4974984;28;20522;-79
2023/02/20 06:04:08;;;;;;;26.75;10.52;;;;;;;4.21;100.00;102127.38;4978192;28;20030;-78
2023/02/20 06:06:36;;;;;;;26.80;10.45;;;;;;;4.25;100.00;102128.06;4979098;28;20037;-77
2023/02/20 06:09:02;;;;;;;23.45;11.38;;;;;;;4.28;100.00;102121.03;4989981;28;20646;-74
2023/02/20 06:11:28;;;;;;;24.42;11.05;;;;;;;4.38;100.00;102123.09;5006170;28;20030;-78
2023/02/20 06:13:53;;;;;;;27.75;10.55;;;;;;;4.46;100.00;102121.78;4992318;28;20092;-81
2023/02/20 06:16:25;;;;;;;28.70;12.75;;;;;;;4.35;100.00;102113.81;4979866;28;20038;-79
2023/02/20 06:18:51;;;;;;;26.50;11.25;;;;;;;4.44;100.00;102122.75;4999119;28;20843;-78
2023/02/20 06:21:17;;;;;;;28.00;11.43;;;;;;;4.45;100.00;102122.69;4992992;28;20158;-79
2023/02/20 06:23:46;;;;;;;23.23;10.90;;;;;;;4.33;100.00;102119.94;4991567;28;20038;-81
2023/02/20 06:26:13;;;;;;;26.58;12.13;;;;;;;4.36;100.00;102137.75;4976951;28;20034;-79
2023/02/20 06:28:39;;;;;;;24.02;11.18;;;;;;;4.40;100.00;102131.53;4975080;28;20066;-79
2023/02/20 06:31:06;;;;;;;23.33;11.45;;;;;;;4.42;100.00;102124.59;4992527;28;20042;-78
2023/02/20 06:33:32;;;;;;;23.42;10.77;;;;;;;4.44;100.00;102125.31;4993778;28;20076;-78
2023/02/20 06:35:57;;;;;;;33.55;11.57;;;;;;;4.56;100.00;102137.50;5006249;28;20609;-77
2023/02/20 06:38:23;;;;;;;29.70;12.10;;;;;;;4.43;100.00;102145.06;5005711;28;20022;-80
2023/02/20 06:40:49;;;;;;;31.23;11.82;;;;;;;4.47;100.00;102131.13;5007451;28;20052;-80
2023/02/20 06:43:15;;;;;;;23.35;11.95;;;;;;;4.53;100.00;102139.41;4992574;28;21120;-80
2023/02/20 06:45:40;;;;;;;26.65;11.80;;;;;;;4.53;100.00;102136.84;5010029;28;20038;-78
2023/02/20 06:48:05;;;;;;;27.77;11.73;;;;;;;4.51;100.00;102139.50;4981569;28;20033;-80
2023/02/20 06:50:31;;;;;;;31.75;12.23;;;;;;;4.60;100.00;102148.44;4992129;28;20096;-79
2023/02/20 06:52:56;;;;;;;33.35;12.43;;;;;;;4.67;100.00;102145.47;4992024;28;20041;-80
2023/02/20 06:55:22;;;;;;;29.00;12.25;;;;;;;4.64;100.00;102148.19;4991243;28;20056;-75
2023/02/20 06:57:48;;;;;;;24.55;11.82;;;;;;;4.57;100.00;102146.84;4992824;28;20034;-80
2023/02/20 07:00:14;;;;;;;28.58;12.48;;;;;;;4.65;100.00;102151.56;4976927;28;20026;-81
2023/02/20 07:02:40;;;;;;;25.02;11.55;;;;;;;4.65;100.00;102147.28;4991955;28;20087;-79
2023/02/20 07:05:07;;;;;;;37.03;12.43;;;;;;;4.63;100.00;102154.25;5005272;28;20464;-79
2023/02/20 07:07:33;;;;;;;34.55;12.25;;;;;;;4.69;100.00;102142.81;5007659;28;20076;-80
2023/02/20 07:10:00;;;;;;;28.73;11.35;;;;;;;4.59;100.00;102146.78;5001971;28;20046;-76
2023/02/20 07:12:30;;;;;;;27.00;12.68;;;;;;;4.57;100.00;102154.56;5007200;28;20434;-79
2023/02/20 07:14:55;;;;;;;32.08;12.68;;;;;;;4.67;100.00;102153.16;5007970;28;20030;-78
2023/02/20 07:17:20;;;;;;;27.63;12.73;;;;;;;4.72;100.00;102139.22;5007544;28;20372;-77
2023/02/20 07:19:46;;;;;;;30.25;11.55;;;;;;;4.80;100.00;102150.75;5008912;28;20038;-80
2023/02/20 07:22:11;;;;;;;31.27;13.00;;;;;;;4.73;100.00;102146.84;4993184;28;20041;-79
2023/02/20 07:24:37;;;;;;;29.88;12.23;;;;;;;4.76;100.00;102161.28;4988066;28;20475;-79
2023/02/20 07:27:02;;;;;;;28.70;13.00;;;;;;;4.80;100.00;102153.31;4989850;28;20090;-80
2023/02/20 07:29:28;;;;;;;33.17;14.32;;;;;;;4.78;100.00;102149.97;4972107;28;20498;-79
2023/02/20 07:31:53;;;;;;;28.63;12.55;;;;;;;4.72;100.00;102155.47;4985521;28;20042;-79
2023/02/20 07:34:19;;;;;;;27.02;13.25;;;;;;;4.77;100.00;102148.34;4993922;28;20032;-78
2023/02/20 07:36:45;;;;;;;35.83;13.40;;;;;;;4.92;100.00;102148.41;4994300;28;20041;-77
2023/02/20 07:39:12;;;;;;;36.15;13.75;;;;;;;4.94;100.00;102146.59;5006643;28;20120;-79
2023/02/20 07:41:38;;;;;;;32.92;13.32;;;;;;;5.03;100.00;102153.78;4989370;28;20038;-80
2023/02/20 07:44:04;;;;;;;34.50;14.15;;;;;;;5.03;100.00;102149.47;5005456;28;20026;-79
2023/02/20 07:46:32;;;;;;;27.17;12.20;;;;;;;5.09;100.00;102150.03;4973424;28;20034;-79
2023/02/20 07:49:02;;;;;;;34.13;13.02;;;;;;;5.04;100.00;102147.69;4992755;28;20030;-80
2023/02/20 07:51:28;;;;;;;30.25;13.43;;;;;;;5.03;100.00;102140.91;4996081;28;20041;-79
2023/02/20 07:53:53;;;;;;;32.05;13.68;;;;;;;5.07;100.00;102139.81;4975779;28;20034;-79
2023/02/20 07:56:20;;;;;;;28.95;12.05;;;;;;;5.15;100.00;102134.25;4994744;28;20033;-77
2023/02/20 07:58:46;;;;;;;26.20;12.70;;;;;;;5.16;100.00;102141.88;4989374;28;20045;-79
2023/02/20 08:01:11;;;;;;;28.38;12.23;;;;;;;5.16;100.00;102135.88;4975622;28;20197;-77
2023/02/20 08:03:37;;;;;;;30.13;12.73;;;;;;;5.21;100.00;102134.69;4992391;28;20034;-78
2023/02/20 08:06:03;;;;;;;42.90;13.80;;;;;;;5.29;100.00;102139.41;5009766;28;20041;-79
2023/02/20 08:08:28;;;;;;;32.50;13.23;;;;;;;5.30;100.00;102150.53;4993734;28;20034;-76
2023/02/20 08:10:53;;;;;;;26.02;12.57;;;;;;;5.35;100.00;102151.94;4994427;28;20088;-79
2023/02/20 08:13:19;;;;;;;27.77;11.88;;;;;;;5.36;100.00;102151.00;5026192;28;20034;-79
2023/02/20 08:15:46;;;;;;;29.80;12.13;;;;;;;5.35;100.00;102133.06;4992571;28;20042;-79
2023/02/20 08:18:12;;;;;;;26.25;12.02;;;;;;;5.41;100.00;102145.59;4978088;28;20030;-81
2023/02/20 08:20:38;;;;;;;24.58;11.68;;;;;;;5.42;100.00;102145.47;4992639;28;20407;-80
2023/02/20 08:23:04;;;;;;;31.25;11.88;;;;;;;5.45;100.00;102137.59;5008264;28;20511;-79
2023/02/20 08:25:31;;;;;;;34.55;11.85;;;;;;;5.55;100.00;102142.22;4993365;28;20037;-79
2023/02/20 08:27:57;;;;;;;29.13;12.43;;;;;;;5.40;100.00;102141.34;4977688;28;20132;-79
2023/02/20 08:30:27;;;;;;;23.25;11.15;;;;;;;5.47;100.00;102140.09;4996401;28;20053;-80
2023/02/20 08:32:54;;;;;;;29.80;11.15;;;;;;;5.54;100.00;102145.69;4996605;28;20026;-79
2023/02/20 08:35:20;;;;;;;26.77;12.45;;;;;;;5.56;100.00;102141.31;5007970;28;20038;-76
2023/02/20 08:37:46;;;;;;;28.52;12.43;;;;;;;5.62;100.00;102140.94;4998770;28;20048;-80
2023/02/20 08:40:12;;;;;;;32.58;12.68;;;;;;;5.54;100.00;102145.69;4994301;28;20026;-79
2023/02/20 08:42:38;;;;;;;24.58;11.40;;;;;;;5.58;100.00;102147.19;4991497;28;20095;-81
2023/02/20 08:45:04;;;;;;;32.00;11.57;;;;;;;5.56;100.00;102141.31;4976727;28;20042;-80
2023/02/20 08:47:30;;;;;;;23.30;10.57;;;;;;;5.56;100.00;102142.13;5009224;28;20046;-80
2023/02/20 08:49:56;;;;;;;24.63;11.27;;;;;;;5.59;100.00;102131.63;4983287;28;20029;-80
2023/02/20 08:52:21;;;;;;;32.78;11.10;;;;;;;5.72;100.00;102128.34;4995528;28;20394;-79
2023/02/20 08:54:47;;;;;;;27.35;11.07;;;;;;;5.77;100.00;102128.91;5015715;28;20037;-78
2023/02/20 08:57:15;;;;;;;29.90;11.80;;;;;;;5.68;100.00;102122.53;4993853;28;20061;-81
2023/02/20 08:59:41;;;;;;;28.92;10.90;;;;;;;5.73;100.00;102122.28;4986151;28;20092;-80
2023/02/20 09:02:14;;;;;;;31.40;11.00;;;;;;;5.82;100.00;102113.97;5013865;28;20626;-80
2023/02/20 09:04:42;;;;;;;25.40;11.55;;;;;;;5.81;100.00;102118.31;5013935;28;20030;-80
2023/02/20 09:07:08;;;;;;;24.50;11.38;;;;;;;5.88;100.00;102126.50;5018660;28;20125;-80
2023/02/20 09:09:33;;;;;;;29.42;11.10;;;;;;;5.95;100.00;102130.41;5011959;28;20133;-79
2023/02/20 09:11:59;;;;;;;22.70;10.88;;;;;;;5.94;100.00;102127.88;4997643;28;20038;-77
2023/02/20 09:14:24;;;;;;;20.63;10.48;;;;;;;5.98;100.00;102129.38;4995112;28;20026;-79
2023/02/20 09:16:51;;;;;;;28.33;11.80;;;;;;;6.05;100.00;102135.81;4997181;28;20509;-80
2023/02/20 09:19:16;;;;;;;28.23;11.50;;;;;;;6.14;100.00;102131.81;4996277;28;20030;-77
2023/02/20 09:21:45;;;;;;;23.92;10.27;;;;;;;6.04;100.00;102137.53;4995973;28;20081;-79
2023/02/20 09:24:10;;;;;;;25.33;10.07;;;;;;;6.19;100.00;102140.94;4981353;28;20037;-80
2023/02/20 09:26:36;;;;;;;24.65;11.20;;;;;;;6.12;100.00;102146.56;4984404;28;20041;-79
2023/02/20 09:29:01;;;;;;;28.88;10.57;;;;;;;6.12;100.00;102152.56;4999360;28;20030;-80
2023/02/20 09:31:27;;;;;;;26.13;12.05;;;;;;;6.12;100.00;102146.56;5011599;28;20038;-80
2023/02/20 09:33:52;;;;;;;22.80;10.52;;;;;;;6.13;100.00;102143.06;4996933;28;21653;-78
2023/02/20 09:36:18;;;;;;;29.23;11.07;;;;;;;6.21;100.00;102140.84;4994592;28;20052;-79
2023/02/20 09:38:43;;;;;;;30.10;9.90;;;;;;;6.18;100.00;102141.88;5016733;28;20044;-81
2023/02/20 09:41:21;;;;;;;21.17;10.40;;;;;;;6.32;100.00;102142.75;4995451;28;20061;-79
2023/02/20 09:44:04;;;;;;;24.55;10.48;;;;;;;6.23;100.00;102142.41;4980828;28;20041;-78
2023/02/20 09:46:30;;;;;;;31.75;12.07;;;;;;;6.28;100.00;102154.19;4992452;28;20042;-79
2023/02/20 09:49:10;;;;;;;26.65;10.70;;;;;;;6.28;100.00;102152.41;5012066;28;20502;-79
2023/02/20 09:51:43;;;;;;;19.95;10.40;;;;;;;6.30;100.00;102150.56;4993185;28;20042;-80
2023/02/20 09:54:36;;;;;;;23.00;11.18;;;;;;;6.35;100.00;102165.75;5008436;28;20045;-81
2023/02/20 09:57:05;;;;;;;;;;;;;;;6.37;100.00;102148.47;4994646;28;20053;-79
2023/02/20 09:59:40;;;;;;;24.90;11.88;;;;;;;6.39;100.00;102144.84;4980988;28;19924;-80
2023/02/20 10:02:19;;;;;;;28.42;12.77;;;;;;;6.34;100.00;102138.34;4995250;28;20141;-79
2023/02/20 10:04:48;;;;;;;30.27;12.80;;;;;;;6.32;100.00;102141.00;4996707;28;20042;-79
2023/02/20 10:07:25;;;;;;;33.75;9.73;;;;;;;6.34;100.00;102143.47;5000592;28;20122;-79
2023/02/20 10:09:51;;;;;;;27.02;11.52;;;;;;;6.34;100.00;102146.88;5010246;28;20431;-80
2023/02/20 10:12:30;;;;;;;22.83;10.75;;;;;;;6.45;100.00;102140.25;4978492;28;20664;-80
2023/02/20 10:15:23;;;;;;;29.52;11.73;;;;;;;6.39;100.00;102142.28;5009904;28;20056;-79
2023/02/20 10:18:05;;;;;;;37.30;16.52;;;;;;;6.47;100.00;102148.72;5023623;28;20418;-78
2023/02/20 10:20:45;;;;;;;37.47;12.30;;;;;;;6.55;100.00;102136.97;5005575;28;20050;-79
2023/02/20 10:23:25;;;;;;;31.10;12.50;;;;;;;6.56;100.00;102133.47;4974305;28;20048;-77
2023/02/20 10:25:56;;;;;;;33.40;11.98;;;;;;;6.59;100.00;102135.88;4989906;28;20430;-77
2023/02/20 10:28:22;;;;;;;32.22;14.68;;;;;;;6.58;100.00;102130.81;4995130;28;20034;-79
2023/02/20 10:30:53;;;;;;;30.23;11.85;;;;;;;6.48;100.00;102133.16;4989707;28;20666;-80
2023/02/20 10:33:34;;;;;;;37.35;17.27;;;;;;;6.56;100.00;102125.75;4992354;28;20037;-79
2023/02/20 10:36:03;;;;;;;43.42;16.05;;;;;;;6.60;100.00;102129.78;4992029;28;20065;-80
2023/02/20 10:38:37;;;;;;;33.95;14.70;;;;;;;6.63;99.93;102121.88;4988381;28;20068;-77
2023/02/20 10:41:10;;;;;;;32.70;15.10;;;;;;;6.70;99.80;102111.97;5004883;28;20106;-78
2023/02/20 10:43:53;;;;;;;34.53;14.57;;;;;;;6.73;99.79;102116.13;5007757;28;20080;-79
2023/02/20 10:46:33;;;;;;;61.03;26.77;;;;;;;6.76;99.93;102119.34;4973065;28;20473;-77
2023/02/20 10:49:01;;;;;;;44.78;16.88;;;;;;;6.91;99.94;102117.53;4992197;28;20494;-78
2023/02/20 10:51:45;;;;;;;43.85;19.13;;;;;;;6.95;100.00;102118.13;4991243;28;20025;-79
2023/02/20 10:54:17;;;;;;;50.95;18.42;;;;;;;6.93;98.88;102118.25;4990873;28;20026;-79
2023/02/20 10:56:56;;;;;;;42.90;18.58;;;;;;;6.88;99.08;102129.78;4975309;28;20658;-79
2023/02/20 10:59:30;;;;;;;71.60;28.80;;;;;;;6.98;99.30;102108.44;4992731;28;20112;-81
2023/02/20 11:01:58;;;;;;;26.90;11.70;;;;;;;6.98;98.94;102117.94;4988495;28;20034;-78
2023/02/20 11:04:29;;;;;;;34.40;13.75;;;;;;;6.97;98.93;102106.78;4990695;28;20152;-78
2023/02/20 11:07:10;;;;;;;37.92;14.32;;;;;;;6.93;99.42;102096.75;4972206;28;20034;-79
2023/02/20 11:09:36;;;;;;;52.85;17.90;;;;;;;7.08;99.45;102103.47;4992260;28;20451;-81
2023/02/20 11:15:52;;;;;;;47.42;18.90;;;;;;;7.17;98.52;102089.16;5009237;28;20119;-88
2023/02/20 11:18:45;;;;;;;30.45;12.73;;;;;;;7.14;98.86;102090.22;4984034;28;20034;-87
2023/02/20 11:21:35;;;;;;;32.40;11.35;;;;;;;7.16;99.30;102078.03;5005557;28;20061;-89
2023/02/20 11:24:27;;;;;;;32.85;12.48;;;;;;;7.13;98.84;102087.72;4988944;28;20124;-88
2023/02/20 11:27:08;;;;;;;36.65;16.98;;;;;;;7.09;98.53;102081.94;5004254;28;20108;-88
2023/02/20 11:29:53;;;;;;;33.90;12.75;;;;;;;7.12;98.94;102083.47;5018329;28;20025;-88
2023/02/20 11:32:19;;;;;;;41.10;12.55;;;;;;;7.21;98.49;102091.47;5017644;28;20137;-90
2023/02/20 11:34:45;;;;;;;30.38;13.52;;;;;;;7.17;98.23;102077.09;5003651;28;20173;-88
2023/02/20 11:37:12;;;;;;;27.65;11.80;;;;;;;7.12;98.33;102083.47;4962179;28;20467;-90
2023/02/20 11:39:46;;;;;;;37.97;15.75;;;;;;;7.13;98.67;102087.72;5012977;28;20041;-90
2023/02/20 11:42:17;;;;;;;40.45;15.63;;;;;;;7.13;98.74;102091.13;4982491;28;20073;-91
2023/02/20 11:44:43;;;;;;;31.65;14.18;;;;;;;7.27;98.21;102089.38;5003591;28;20043;-89